sensor_id;sensor_type;location;lat;lon;timestamp;P1;durP1;ratioP1;P2;durP2;ratioP2
67528;SDS011;54366;51.980;5.856;2023-08-08T00:02:06;3.60;;;2.30;;
67528;SDS011;54366;51.980;5.856;2023-08-08T00:04:39;3.15;;;2.50;;
67528;SDS011;54366;51.980;5.856;2023-08-08T00:07:12;3.08;;;2.33;;
67528;SDS011;54366;51.980;5.856;2023-08-08T00:09:38;4.43;;;2.38;;
67528;SDS011;54366;51.980;5.856;2023-08-08T00:12:11;3.45;;;2.25;;
67528;SDS011;54366;51.980;5.856;2023-08-08T00:14:44;2.47;;;2.28;;
67528;SDS011;54366;51.980;5.856;2023-08-08T00:17:17;4.22;;;2.33;;
67528;SDS011;54366;51.980;5.856;2023-08-08T00:19:50;3.13;;;2.60;;
67528;SDS011;54366;51.980;5.856;2023-08-08T00:22:23;4.07;;;2.60;;
67528;SDS011;54366;51.980;5.856;2023-08-08T00:24:49;3.53;;;2.42;;
67528;SDS011;54366;51.980;5.856;2023-08-08T00:27:22;3.67;;;2.45;;
67528;SDS011;54366;51.980;5.856;2023-08-08T00:29:55;2.65;;;2.38;;
67528;SDS011;54366;51.980;5.856;2023-08-08T00:32:22;2.67;;;2.47;;
67528;SDS011;54366;51.980;5.856;2023-08-08T00:34:55;5.30;;;2.60;;
67528;SDS011;54366;51.980;5.856;2023-08-08T00:37:34;3.10;;;2.63;;
67528;SDS011;54366;51.980;5.856;2023-08-08T00:40:14;4.38;;;2.75;;
67528;SDS011;54366;51.980;5.856;2023-08-08T00:42:40;3.75;;;2.42;;
67528;SDS011;54366;51.980;5.856;2023-08-08T00:45:14;2.60;;;2.20;;
67528;SDS011;54366;51.980;5.856;2023-08-08T00:47:48;3.72;;;2.40;;
67528;SDS011;54366;51.980;5.856;2023-08-08T00:50:21;3.30;;;2.53;;
67528;SDS011;54366;51.980;5.856;2023-08-08T00:52:54;3.25;;;2.45;;
67528;SDS011;54366;51.980;5.856;2023-08-08T00:55:20;3.35;;;2.90;;
67528;SDS011;54366;51.980;5.856;2023-08-08T00:57:54;3.00;;;2.70;;
67528;SDS011;54366;51.980;5.856;2023-08-08T01:03:00;2.80;;;2.40;;
67528;SDS011;54366;51.980;5.856;2023-08-08T01:05:44;5.30;;;2.47;;
67528;SDS011;54366;51.980;5.856;2023-08-08T01:08:42;4.32;;;2.67;;
67528;SDS011;54366;51.980;5.856;2023-08-08T01:11:20;3.22;;;2.40;;
67528;SDS011;54366;51.980;5.856;2023-08-08T01:13:53;3.15;;;2.20;;
67528;SDS011;54366;51.980;5.856;2023-08-08T01:16:27;2.63;;;2.20;;
67528;SDS011;54366;51.980;5.856;2023-08-08T01:19:01;5.25;;;2.55;;
67528;SDS011;54366;51.980;5.856;2023-08-08T01:21:35;2.67;;;1.80;;
67528;SDS011;54366;51.980;5.856;2023-08-08T01:24:22;4.15;;;2.22;;
67528;SDS011;54366;51.980;5.856;2023-08-08T01:27:00;4.93;;;1.98;;
67528;SDS011;54366;51.980;5.856;2023-08-08T01:29:34;2.10;;;1.60;;
67528;SDS011;54366;51.980;5.856;2023-08-08T01:32:00;1.98;;;1.40;;
67528;SDS011;54366;51.980;5.856;2023-08-08T01:34:33;3.43;;;1.60;;
67528;SDS011;54366;51.980;5.856;2023-08-08T01:37:14;2.25;;;1.50;;
67528;SDS011;54366;51.980;5.856;2023-08-08T01:40:02;3.20;;;1.73;;
67528;SDS011;54366;51.980;5.856;2023-08-08T01:42:30;2.97;;;1.85;;
67528;SDS011;54366;51.980;5.856;2023-08-08T01:45:04;3.78;;;2.13;;
67528;SDS011;54366;51.980;5.856;2023-08-08T01:47:38;5.50;;;2.13;;
67528;SDS011;54366;51.980;5.856;2023-08-08T01:50:11;2.95;;;1.70;;
67528;SDS011;54366;51.980;5.856;2023-08-08T01:52:44;3.50;;;1.95;;
67528;SDS011;54366;51.980;5.856;2023-08-08T01:55:19;4.88;;;2.25;;
67528;SDS011;54366;51.980;5.856;2023-08-08T01:57:52;3.78;;;2.00;;
67528;SDS011;54366;51.980;5.856;2023-08-08T02:00:18;3.20;;;2.30;;
67528;SDS011;54366;51.980;5.856;2023-08-08T02:02:52;3.72;;;2.20;;
67528;SDS011;54366;51.980;5.856;2023-08-08T02:05:25;3.40;;;2.10;;
67528;SDS011;54366;51.980;5.856;2023-08-08T02:07:51;3.45;;;1.40;;
67528;SDS011;54366;51.980;5.856;2023-08-08T02:10:24;2.22;;;1.50;;
67528;SDS011;54366;51.980;5.856;2023-08-08T02:12:57;3.60;;;1.70;;
67528;SDS011;54366;51.980;5.856;2023-08-08T02:15:30;2.42;;;2.10;;
67528;SDS011;54366;51.980;5.856;2023-08-08T02:18:03;3.17;;;1.80;;
67528;SDS011;54366;51.980;5.856;2023-08-08T02:20:29;1.85;;;1.40;;
67528;SDS011;54366;51.980;5.856;2023-08-08T02:23:04;4.22;;;2.00;;
67528;SDS011;54366;51.980;5.856;2023-08-08T02:25:37;3.05;;;1.80;;
67528;SDS011;54366;51.980;5.856;2023-08-08T02:28:03;4.10;;;2.13;;
67528;SDS011;54366;51.980;5.856;2023-08-08T02:30:37;2.97;;;1.60;;
67528;SDS011;54366;51.980;5.856;2023-08-08T02:33:11;3.33;;;1.80;;
67528;SDS011;54366;51.980;5.856;2023-08-08T02:35:44;3.65;;;2.08;;
67528;SDS011;54366;51.980;5.856;2023-08-08T02:38:10;4.07;;;2.20;;
67528;SDS011;54366;51.980;5.856;2023-08-08T02:40:50;4.00;;;1.60;;
67528;SDS011;54366;51.980;5.856;2023-08-08T02:43:23;2.38;;;1.77;;
67528;SDS011;54366;51.980;5.856;2023-08-08T02:45:56;3.00;;;2.00;;
67528;SDS011;54366;51.980;5.856;2023-08-08T02:48:29;3.67;;;2.00;;
67528;SDS011;54366;51.980;5.856;2023-08-08T02:51:03;2.50;;;1.70;;
67528;SDS011;54366;51.980;5.856;2023-08-08T02:53:36;2.75;;;1.80;;
67528;SDS011;54366;51.980;5.856;2023-08-08T02:56:09;3.50;;;2.10;;
67528;SDS011;54366;51.980;5.856;2023-08-08T02:58:42;4.83;;;2.10;;
67528;SDS011;54366;51.980;5.856;2023-08-08T03:01:15;2.53;;;1.73;;
67528;SDS011;54366;51.980;5.856;2023-08-08T03:03:48;4.60;;;2.40;;
67528;SDS011;54366;51.980;5.856;2023-08-08T03:06:23;3.75;;;1.88;;
67528;SDS011;54366;51.980;5.856;2023-08-08T03:08:57;4.97;;;1.95;;
67528;SDS011;54366;51.980;5.856;2023-08-08T03:11:30;2.97;;;1.50;;
67528;SDS011;54366;51.980;5.856;2023-08-08T03:13:57;3.53;;;1.50;;
67528;SDS011;54366;51.980;5.856;2023-08-08T03:16:31;3.50;;;1.60;;
67528;SDS011;54366;51.980;5.856;2023-08-08T03:19:06;3.00;;;1.70;;
67528;SDS011;54366;51.980;5.856;2023-08-08T03:21:39;3.33;;;1.83;;
67528;SDS011;54366;51.980;5.856;2023-08-08T03:24:12;2.05;;;1.50;;
67528;SDS011;54366;51.980;5.856;2023-08-08T03:26:39;2.33;;;1.98;;
67528;SDS011;54366;51.980;5.856;2023-08-08T03:29:12;4.53;;;1.95;;
67528;SDS011;54366;51.980;5.856;2023-08-08T03:31:47;3.15;;;1.80;;
67528;SDS011;54366;51.980;5.856;2023-08-08T03:34:21;3.60;;;2.13;;
67528;SDS011;54366;51.980;5.856;2023-08-08T03:36:55;5.22;;;2.28;;
67528;SDS011;54366;51.980;5.856;2023-08-08T03:39:28;4.32;;;2.42;;
67528;SDS011;54366;51.980;5.856;2023-08-08T03:44:42;3.88;;;2.00;;
67528;SDS011;54366;51.980;5.856;2023-08-08T03:47:15;3.10;;;2.20;;
67528;SDS011;54366;51.980;5.856;2023-08-08T03:49:48;4.35;;;2.67;;
67528;SDS011;54366;51.980;5.856;2023-08-08T03:52:21;6.15;;;2.72;;
67528;SDS011;54366;51.980;5.856;2023-08-08T03:54:54;3.88;;;2.35;;
67528;SDS011;54366;51.980;5.856;2023-08-08T03:57:27;3.90;;;2.22;;
67528;SDS011;54366;51.980;5.856;2023-08-08T04:00:00;3.10;;;1.52;;
67528;SDS011;54366;51.980;5.856;2023-08-08T04:02:38;5.78;;;2.88;;
67528;SDS011;54366;51.980;5.856;2023-08-08T04:05:12;3.40;;;2.57;;
67528;SDS011;54366;51.980;5.856;2023-08-08T04:07:45;4.35;;;1.98;;
67528;SDS011;54366;51.980;5.856;2023-08-08T04:10:18;2.53;;;2.10;;
67528;SDS011;54366;51.980;5.856;2023-08-08T04:12:51;4.68;;;2.42;;
67528;SDS011;54366;51.980;5.856;2023-08-08T04:15:24;4.22;;;2.95;;
67528;SDS011;54366;51.980;5.856;2023-08-08T04:17:57;5.00;;;2.50;;
67528;SDS011;54366;51.980;5.856;2023-08-08T04:20:30;4.03;;;2.65;;
67528;SDS011;54366;51.980;5.856;2023-08-08T04:23:03;8.38;;;3.00;;
67528;SDS011;54366;51.980;5.856;2023-08-08T04:25:36;5.07;;;2.33;;
67528;SDS011;54366;51.980;5.856;2023-08-08T04:28:09;3.45;;;2.58;;
67528;SDS011;54366;51.980;5.856;2023-08-08T04:30:42;4.75;;;2.35;;
67528;SDS011;54366;51.980;5.856;2023-08-08T04:33:15;5.03;;;2.35;;
67528;SDS011;54366;51.980;5.856;2023-08-08T04:35:48;5.22;;;2.80;;
67528;SDS011;54366;51.980;5.856;2023-08-08T04:38:27;4.85;;;2.30;;
67528;SDS011;54366;51.980;5.856;2023-08-08T04:41:07;4.35;;;2.33;;
67528;SDS011;54366;51.980;5.856;2023-08-08T04:43:40;3.97;;;2.30;;
67528;SDS011;54366;51.980;5.856;2023-08-08T04:46:06;5.28;;;2.92;;
67528;SDS011;54366;51.980;5.856;2023-08-08T04:48:39;3.35;;;2.22;;
67528;SDS011;54366;51.980;5.856;2023-08-08T04:51:12;4.55;;;2.42;;
67528;SDS011;54366;51.980;5.856;2023-08-08T04:53:45;3.78;;;2.95;;
67528;SDS011;54366;51.980;5.856;2023-08-08T04:56:11;4.20;;;2.83;;
67528;SDS011;54366;51.980;5.856;2023-08-08T04:58:44;5.38;;;3.20;;
67528;SDS011;54366;51.980;5.856;2023-08-08T05:01:17;2.63;;;2.15;;
67528;SDS011;54366;51.980;5.856;2023-08-08T05:03:46;3.10;;;2.25;;
67528;SDS011;54366;51.980;5.856;2023-08-08T05:08:46;5.28;;;2.88;;
67528;SDS011;54366;51.980;5.856;2023-08-08T05:11:19;4.88;;;2.95;;
67528;SDS011;54366;51.980;5.856;2023-08-08T05:13:52;7.45;;;2.97;;
67528;SDS011;54366;51.980;5.856;2023-08-08T05:16:25;5.35;;;2.83;;
67528;SDS011;54366;51.980;5.856;2023-08-08T05:18:58;6.07;;;3.33;;
67528;SDS011;54366;51.980;5.856;2023-08-08T05:21:31;5.30;;;2.75;;
67528;SDS011;54366;51.980;5.856;2023-08-08T05:23:57;3.95;;;2.80;;
67528;SDS011;54366;51.980;5.856;2023-08-08T05:26:30;7.03;;;3.75;;
67528;SDS011;54366;51.980;5.856;2023-08-08T05:29:03;5.20;;;2.95;;
67528;SDS011;54366;51.980;5.856;2023-08-08T05:31:29;6.45;;;3.28;;
67528;SDS011;54366;51.980;5.856;2023-08-08T05:34:02;5.70;;;3.60;;
67528;SDS011;54366;51.980;5.856;2023-08-08T05:36:35;3.88;;;2.78;;
67528;SDS011;54366;51.980;5.856;2023-08-08T05:39:14;6.07;;;3.30;;
67528;SDS011;54366;51.980;5.856;2023-08-08T05:41:54;6.68;;;3.42;;
67528;SDS011;54366;51.980;5.856;2023-08-08T05:44:27;5.65;;;3.22;;
67528;SDS011;54366;51.980;5.856;2023-08-08T05:46:53;7.32;;;3.90;;
67528;SDS011;54366;51.980;5.856;2023-08-08T05:49:26;6.22;;;3.38;;
67528;SDS011;54366;51.980;5.856;2023-08-08T05:51:59;5.35;;;3.42;;
67528;SDS011;54366;51.980;5.856;2023-08-08T05:54:32;5.20;;;2.90;;
67528;SDS011;54366;51.980;5.856;2023-08-08T05:57:05;6.85;;;3.78;;
67528;SDS011;54366;51.980;5.856;2023-08-08T05:59:32;6.80;;;3.47;;
67528;SDS011;54366;51.980;5.856;2023-08-08T06:02:05;6.38;;;3.10;;
67528;SDS011;54366;51.980;5.856;2023-08-08T06:04:32;3.63;;;2.92;;
67528;SDS011;54366;51.980;5.856;2023-08-08T06:07:05;5.93;;;2.78;;
67528;SDS011;54366;51.980;5.856;2023-08-08T06:09:38;6.35;;;3.63;;
67528;SDS011;54366;51.980;5.856;2023-08-08T06:12:11;7.55;;;3.95;;
67528;SDS011;54366;51.980;5.856;2023-08-08T06:14:44;5.65;;;3.47;;
67528;SDS011;54366;51.980;5.856;2023-08-08T06:17:10;5.28;;;3.05;;
67528;SDS011;54366;51.980;5.856;2023-08-08T06:19:43;4.93;;;2.70;;
67528;SDS011;54366;51.980;5.856;2023-08-08T06:22:16;5.68;;;3.17;;
67528;SDS011;54366;51.980;5.856;2023-08-08T06:24:49;6.78;;;3.33;;
67528;SDS011;54366;51.980;5.856;2023-08-08T06:27:22;5.53;;;3.60;;
67528;SDS011;54366;51.980;5.856;2023-08-08T06:29:55;7.35;;;3.40;;
67528;SDS011;54366;51.980;5.856;2023-08-08T06:32:28;3.88;;;2.58;;
67528;SDS011;54366;51.980;5.856;2023-08-08T06:35:01;3.38;;;2.10;;
67528;SDS011;54366;51.980;5.856;2023-08-08T06:37:34;5.00;;;2.17;;
67528;SDS011;54366;51.980;5.856;2023-08-08T06:40:13;4.97;;;2.65;;
67528;SDS011;54366;51.980;5.856;2023-08-08T06:42:46;7.15;;;3.20;;
67528;SDS011;54366;51.980;5.856;2023-08-08T06:45:19;6.85;;;3.45;;
67528;SDS011;54366;51.980;5.856;2023-08-08T06:47:52;5.82;;;2.90;;
67528;SDS011;54366;51.980;5.856;2023-08-08T06:50:25;5.40;;;3.03;;
67528;SDS011;54366;51.980;5.856;2023-08-08T06:52:51;6.25;;;2.85;;
67528;SDS011;54366;51.980;5.856;2023-08-08T06:55:24;4.85;;;2.95;;
67528;SDS011;54366;51.980;5.856;2023-08-08T06:57:50;4.97;;;2.53;;
67528;SDS011;54366;51.980;5.856;2023-08-08T07:00:23;3.67;;;2.20;;
67528;SDS011;54366;51.980;5.856;2023-08-08T07:02:56;4.13;;;1.92;;
67528;SDS011;54366;51.980;5.856;2023-08-08T07:05:29;4.35;;;2.17;;
67528;SDS011;54366;51.980;5.856;2023-08-08T07:07:55;3.38;;;1.80;;
67528;SDS011;54366;51.980;5.856;2023-08-08T07:10:28;5.63;;;1.95;;
67528;SDS011;54366;51.980;5.856;2023-08-08T07:12:55;7.97;;;1.60;;
67528;SDS011;54366;51.980;5.856;2023-08-08T07:15:28;3.63;;;1.45;;
67528;SDS011;54366;51.980;5.856;2023-08-08T07:18:01;2.70;;;0.95;;
67528;SDS011;54366;51.980;5.856;2023-08-08T07:20:34;2.55;;;1.20;;
67528;SDS011;54366;51.980;5.856;2023-08-08T07:23:00;2.35;;;0.82;;
67528;SDS011;54366;51.980;5.856;2023-08-08T07:25:33;1.63;;;0.50;;
67528;SDS011;54366;51.980;5.856;2023-08-08T07:28:07;1.88;;;0.73;;
67528;SDS011;54366;51.980;5.856;2023-08-08T07:33:07;4.22;;;1.08;;
67528;SDS011;54366;51.980;5.856;2023-08-08T07:35:43;1.63;;;0.70;;
67528;SDS011;54366;51.980;5.856;2023-08-08T07:38:09;3.22;;;0.75;;
67528;SDS011;54366;51.980;5.856;2023-08-08T07:40:48;4.38;;;1.00;;
67528;SDS011;54366;51.980;5.856;2023-08-08T07:43:28;2.25;;;0.70;;
67528;SDS011;54366;51.980;5.856;2023-08-08T07:46:01;3.20;;;0.80;;
67528;SDS011;54366;51.980;5.856;2023-08-08T07:48:34;2.10;;;0.80;;
67528;SDS011;54366;51.980;5.856;2023-08-08T07:51:07;2.80;;;0.70;;
67528;SDS011;54366;51.980;5.856;2023-08-08T07:53:40;2.75;;;0.63;;
67528;SDS011;54366;51.980;5.856;2023-08-08T07:56:13;2.03;;;0.57;;
67528;SDS011;54366;51.980;5.856;2023-08-08T07:58:39;1.85;;;0.40;;
67528;SDS011;54366;51.980;5.856;2023-08-08T08:01:12;1.60;;;0.60;;
67528;SDS011;54366;51.980;5.856;2023-08-08T08:03:46;1.50;;;0.57;;
67528;SDS011;54366;51.980;5.856;2023-08-08T08:06:19;1.27;;;0.60;;
67528;SDS011;54366;51.980;5.856;2023-08-08T08:08:52;1.42;;;0.50;;
67528;SDS011;54366;51.980;5.856;2023-08-08T08:11:25;1.83;;;0.55;;
67528;SDS011;54366;51.980;5.856;2023-08-08T08:13:58;1.30;;;0.30;;
67528;SDS011;54366;51.980;5.856;2023-08-08T08:16:24;2.47;;;0.40;;
67528;SDS011;54366;51.980;5.856;2023-08-08T08:18:57;1.33;;;0.40;;
67528;SDS011;54366;51.980;5.856;2023-08-08T08:21:30;1.55;;;0.40;;
67528;SDS011;54366;51.980;5.856;2023-08-08T08:24:03;1.40;;;0.32;;
67528;SDS011;54366;51.980;5.856;2023-08-08T08:26:30;1.38;;;0.40;;
67528;SDS011;54366;51.980;5.856;2023-08-08T08:29:03;1.93;;;0.40;;
67528;SDS011;54366;51.980;5.856;2023-08-08T08:31:36;0.90;;;0.32;;
67528;SDS011;54366;51.980;5.856;2023-08-08T08:34:10;2.03;;;0.40;;
67528;SDS011;54366;51.980;5.856;2023-08-08T08:36:43;1.85;;;0.50;;
67528;SDS011;54366;51.980;5.856;2023-08-08T08:39:22;1.10;;;0.32;;
67528;SDS011;54366;51.980;5.856;2023-08-08T08:41:58;1.38;;;0.30;;
67528;SDS011;54366;51.980;5.856;2023-08-08T08:44:39;1.38;;;0.40;;
67528;SDS011;54366;51.980;5.856;2023-08-08T08:47:14;3.90;;;0.50;;
67528;SDS011;54366;51.980;5.856;2023-08-08T08:49:43;1.20;;;0.20;;
67528;SDS011;54366;51.980;5.856;2023-08-08T08:52:18;4.45;;;0.40;;
67528;SDS011;54366;51.980;5.856;2023-08-08T08:54:52;1.92;;;0.38;;
67528;SDS011;54366;51.980;5.856;2023-08-08T08:57:20;1.83;;;0.30;;
67528;SDS011;54366;51.980;5.856;2023-08-08T08:59:55;0.93;;;0.30;;
67528;SDS011;54366;51.980;5.856;2023-08-08T09:02:21;2.53;;;0.40;;
67528;SDS011;54366;51.980;5.856;2023-08-08T09:04:56;0.82;;;0.30;;
67528;SDS011;54366;51.980;5.856;2023-08-08T09:07:30;0.73;;;0.20;;
67528;SDS011;54366;51.980;5.856;2023-08-08T09:10:05;1.95;;;0.43;;
67528;SDS011;54366;51.980;5.856;2023-08-08T09:12:39;2.00;;;0.32;;
67528;SDS011;54366;51.980;5.856;2023-08-08T09:15:12;1.35;;;0.30;;
67528;SDS011;54366;51.980;5.856;2023-08-08T09:17:45;1.02;;;0.30;;
67528;SDS011;54366;51.980;5.856;2023-08-08T09:22:45;1.30;;;0.20;;
67528;SDS011;54366;51.980;5.856;2023-08-08T09:25:18;1.23;;;0.30;;
67528;SDS011;54366;51.980;5.856;2023-08-08T09:27:52;1.83;;;0.22;;
67528;SDS011;54366;51.980;5.856;2023-08-08T09:30:25;0.82;;;0.20;;
67528;SDS011;54366;51.980;5.856;2023-08-08T09:32:58;1.65;;;0.25;;
67528;SDS011;54366;51.980;5.856;2023-08-08T09:35:33;0.70;;;0.30;;
67528;SDS011;54366;51.980;5.856;2023-08-08T09:38:06;1.63;;;0.30;;
67528;SDS011;54366;51.980;5.856;2023-08-08T09:40:45;1.20;;;0.20;;
67528;SDS011;54366;51.980;5.856;2023-08-08T09:43:25;0.63;;;0.20;;
67528;SDS011;54366;51.980;5.856;2023-08-08T09:45:58;0.95;;;0.22;;
67528;SDS011;54366;51.980;5.856;2023-08-08T09:48:31;0.68;;;0.28;;
67528;SDS011;54366;51.980;5.856;2023-08-08T09:51:04;0.80;;;0.22;;
67528;SDS011;54366;51.980;5.856;2023-08-08T09:53:38;1.45;;;0.20;;
67528;SDS011;54366;51.980;5.856;2023-08-08T09:58:46;1.40;;;0.30;;
67528;SDS011;54366;51.980;5.856;2023-08-08T10:01:19;0.97;;;0.30;;
67528;SDS011;54366;51.980;5.856;2023-08-08T10:03:46;1.65;;;0.30;;
67528;SDS011;54366;51.980;5.856;2023-08-08T10:06:20;1.45;;;0.30;;
67528;SDS011;54366;51.980;5.856;2023-08-08T10:08:53;0.82;;;0.30;;
67528;SDS011;54366;51.980;5.856;2023-08-08T10:11:28;0.40;;;0.15;;
67528;SDS011;54366;51.980;5.856;2023-08-08T10:13:56;2.33;;;0.32;;
67528;SDS011;54366;51.980;5.856;2023-08-08T10:16:33;0.40;;;0.20;;
67528;SDS011;54366;51.980;5.856;2023-08-08T10:19:06;0.50;;;0.20;;
67528;SDS011;54366;51.980;5.856;2023-08-08T10:21:41;0.95;;;0.40;;
67528;SDS011;54366;51.980;5.856;2023-08-08T10:24:19;1.60;;;0.30;;
67528;SDS011;54366;51.980;5.856;2023-08-08T10:26:54;1.10;;;0.30;;
67528;SDS011;54366;51.980;5.856;2023-08-08T10:29:33;1.80;;;0.25;;
67528;SDS011;54366;51.980;5.856;2023-08-08T10:32:10;1.90;;;0.40;;
67528;SDS011;54366;51.980;5.856;2023-08-08T10:34:43;1.30;;;0.30;;
67528;SDS011;54366;51.980;5.856;2023-08-08T10:37:18;1.13;;;0.30;;
67528;SDS011;54366;51.980;5.856;2023-08-08T10:39:54;0.73;;;0.30;;
67528;SDS011;54366;51.980;5.856;2023-08-08T10:42:31;0.60;;;0.22;;
67528;SDS011;54366;51.980;5.856;2023-08-08T10:44:59;0.68;;;0.22;;
67528;SDS011;54366;51.980;5.856;2023-08-08T10:47:36;0.65;;;0.20;;
67528;SDS011;54366;51.980;5.856;2023-08-08T10:50:10;1.40;;;0.30;;
67528;SDS011;54366;51.980;5.856;2023-08-08T10:52:56;0.32;;;0.20;;
67528;SDS011;54366;51.980;5.856;2023-08-08T10:55:33;1.75;;;0.30;;
67528;SDS011;54366;51.980;5.856;2023-08-08T10:58:09;0.55;;;0.30;;
67528;SDS011;54366;51.980;5.856;2023-08-08T11:00:45;2.63;;;0.30;;
67528;SDS011;54366;51.980;5.856;2023-08-08T11:03:18;0.98;;;0.20;;
67528;SDS011;54366;51.980;5.856;2023-08-08T11:05:52;4.95;;;0.40;;
67528;SDS011;54366;51.980;5.856;2023-08-08T11:08:25;1.73;;;0.40;;
67528;SDS011;54366;51.980;5.856;2023-08-08T11:13:32;1.33;;;0.35;;
67528;SDS011;54366;51.980;5.856;2023-08-08T11:16:06;1.10;;;0.47;;
67528;SDS011;54366;51.980;5.856;2023-08-08T11:18:41;0.75;;;0.40;;
67528;SDS011;54366;51.980;5.856;2023-08-08T11:21:15;0.98;;;0.70;;
67528;SDS011;54366;51.980;5.856;2023-08-08T11:23:44;1.30;;;0.50;;
67528;SDS011;54366;51.980;5.856;2023-08-08T11:26:18;0.98;;;0.38;;
67528;SDS011;54366;51.980;5.856;2023-08-08T11:28:51;1.20;;;0.22;;
67528;SDS011;54366;51.980;5.856;2023-08-08T11:31:24;1.10;;;0.43;;
67528;SDS011;54366;51.980;5.856;2023-08-08T11:33:52;0.40;;;0.20;;
67528;SDS011;54366;51.980;5.856;2023-08-08T11:36:29;0.95;;;0.30;;
67528;SDS011;54366;51.980;5.856;2023-08-08T11:38:56;1.05;;;0.30;;
67528;SDS011;54366;51.980;5.856;2023-08-08T11:41:36;1.85;;;0.55;;
67528;SDS011;54366;51.980;5.856;2023-08-08T11:44:10;1.80;;;1.42;;
67528;SDS011;54366;51.980;5.856;2023-08-08T11:46:43;1.30;;;0.80;;
67528;SDS011;54366;51.980;5.856;2023-08-08T11:49:18;1.73;;;0.70;;
67528;SDS011;54366;51.980;5.856;2023-08-08T11:51:53;0.40;;;0.40;;
67528;SDS011;54366;51.980;5.856;2023-08-08T11:54:31;1.05;;;0.30;;
67528;SDS011;54366;51.980;5.856;2023-08-08T11:57:04;0.82;;;0.40;;
67528;SDS011;54366;51.980;5.856;2023-08-08T11:59:37;1.63;;;0.60;;
67528;SDS011;54366;51.980;5.856;2023-08-08T12:02:10;1.23;;;0.40;;
67528;SDS011;54366;51.980;5.856;2023-08-08T12:04:44;0.40;;;0.30;;
67528;SDS011;54366;51.980;5.856;2023-08-08T12:07:18;0.63;;;0.40;;
67528;SDS011;54366;51.980;5.856;2023-08-08T12:09:52;1.40;;;0.40;;
67528;SDS011;54366;51.980;5.856;2023-08-08T12:14:58;0.57;;;0.30;;
67528;SDS011;54366;51.980;5.856;2023-08-08T12:17:25;1.92;;;0.63;;
67528;SDS011;54366;51.980;5.856;2023-08-08T12:19:59;2.17;;;0.45;;
67528;SDS011;54366;51.980;5.856;2023-08-08T12:25:06;1.42;;;0.40;;
67528;SDS011;54366;51.980;5.856;2023-08-08T12:27:40;1.48;;;0.40;;
67528;SDS011;54366;51.980;5.856;2023-08-08T12:30:13;1.73;;;0.38;;
67528;SDS011;54366;51.980;5.856;2023-08-08T12:32:46;1.33;;;0.30;;
67528;SDS011;54366;51.980;5.856;2023-08-08T12:35:12;0.82;;;0.40;;
67528;SDS011;54366;51.980;5.856;2023-08-08T12:37:45;0.73;;;0.35;;
67528;SDS011;54366;51.980;5.856;2023-08-08T12:40:12;0.75;;;0.38;;
67528;SDS011;54366;51.980;5.856;2023-08-08T12:42:45;0.57;;;0.35;;
67528;SDS011;54366;51.980;5.856;2023-08-08T12:45:18;3.38;;;0.47;;
67528;SDS011;54366;51.980;5.856;2023-08-08T12:47:51;1.07;;;0.50;;
67528;SDS011;54366;51.980;5.856;2023-08-08T12:50:24;0.33;;;0.27;;
67528;SDS011;54366;51.980;5.856;2023-08-08T12:52:57;0.70;;;0.40;;
67528;SDS011;54366;51.980;5.856;2023-08-08T12:55:23;0.77;;;0.35;;
67528;SDS011;54366;51.980;5.856;2023-08-08T12:57:56;0.75;;;0.55;;
67528;SDS011;54366;51.980;5.856;2023-08-08T13:00:22;1.33;;;0.50;;
67528;SDS011;54366;51.980;5.856;2023-08-08T13:02:56;1.02;;;0.32;;
67528;SDS011;54366;51.980;5.856;2023-08-08T13:05:29;1.17;;;0.30;;
67528;SDS011;54366;51.980;5.856;2023-08-08T13:08:02;0.90;;;0.40;;
67528;SDS011;54366;51.980;5.856;2023-08-08T13:10:35;1.50;;;0.50;;
67528;SDS011;54366;51.980;5.856;2023-08-08T13:13:09;1.75;;;0.38;;
67528;SDS011;54366;51.980;5.856;2023-08-08T13:15:42;1.02;;;0.30;;
67528;SDS011;54366;51.980;5.856;2023-08-08T13:18:16;1.13;;;0.30;;
67528;SDS011;54366;51.980;5.856;2023-08-08T13:20:49;1.10;;;0.30;;
67528;SDS011;54366;51.980;5.856;2023-08-08T13:23:29;1.60;;;0.40;;
67528;SDS011;54366;51.980;5.856;2023-08-08T13:26:15;1.13;;;0.30;;
67528;SDS011;54366;51.980;5.856;2023-08-08T13:28:48;0.82;;;0.30;;
67528;SDS011;54366;51.980;5.856;2023-08-08T13:33:55;1.08;;;0.50;;
67528;SDS011;54366;51.980;5.856;2023-08-08T13:36:21;3.00;;;0.40;;
67528;SDS011;54366;51.980;5.856;2023-08-08T13:38:54;1.08;;;0.40;;
67528;SDS011;54366;51.980;5.856;2023-08-08T13:41:20;1.23;;;0.43;;
67528;SDS011;54366;51.980;5.856;2023-08-08T13:43:53;1.42;;;0.70;;
67528;SDS011;54366;51.980;5.856;2023-08-08T13:46:26;0.45;;;0.30;;
67528;SDS011;54366;51.980;5.856;2023-08-08T13:48:52;0.40;;;0.32;;
67528;SDS011;54366;51.980;5.856;2023-08-08T13:51:25;1.67;;;0.40;;
67528;SDS011;54366;51.980;5.856;2023-08-08T13:53:58;1.15;;;0.40;;
67528;SDS011;54366;51.980;5.856;2023-08-08T13:56:31;2.20;;;0.35;;
67528;SDS011;54366;51.980;5.856;2023-08-08T13:59:04;1.10;;;0.50;;
67528;SDS011;54366;51.980;5.856;2023-08-08T14:01:37;1.50;;;0.50;;
67528;SDS011;54366;51.980;5.856;2023-08-08T14:04:04;1.85;;;0.90;;
67528;SDS011;54366;51.980;5.856;2023-08-08T14:06:37;1.05;;;0.60;;
67528;SDS011;54366;51.980;5.856;2023-08-08T14:09:03;1.63;;;0.50;;
67528;SDS011;54366;51.980;5.856;2023-08-08T14:11:36;3.03;;;0.55;;
67528;SDS011;54366;51.980;5.856;2023-08-08T14:14:09;1.45;;;0.60;;
67528;SDS011;54366;51.980;5.856;2023-08-08T14:16:42;1.10;;;0.52;;
67528;SDS011;54366;51.980;5.856;2023-08-08T14:19:15;0.40;;;0.23;;
67528;SDS011;54366;51.980;5.856;2023-08-08T14:21:49;2.13;;;0.40;;
67528;SDS011;54366;51.980;5.856;2023-08-08T14:24:22;1.47;;;0.50;;
67528;SDS011;54366;51.980;5.856;2023-08-08T14:26:48;1.77;;;0.57;;
67528;SDS011;54366;51.980;5.856;2023-08-08T14:29:21;0.95;;;0.45;;
67528;SDS011;54366;51.980;5.856;2023-08-08T14:31:54;1.90;;;0.40;;
67528;SDS011;54366;51.980;5.856;2023-08-08T14:34:30;1.92;;;0.30;;
67528;SDS011;54366;51.980;5.856;2023-08-08T14:37:04;0.30;;;0.20;;
67528;SDS011;54366;51.980;5.856;2023-08-08T14:42:17;0.73;;;0.20;;
67528;SDS011;54366;51.980;5.856;2023-08-08T14:44:57;0.85;;;0.38;;
67528;SDS011;54366;51.980;5.856;2023-08-08T14:47:30;0.90;;;0.30;;
67528;SDS011;54366;51.980;5.856;2023-08-08T14:50:03;1.15;;;0.30;;
67528;SDS011;54366;51.980;5.856;2023-08-08T14:52:38;3.10;;;0.40;;
67528;SDS011;54366;51.980;5.856;2023-08-08T14:55:11;2.22;;;0.60;;
67528;SDS011;54366;51.980;5.856;2023-08-08T14:57:37;0.85;;;0.40;;
67528;SDS011;54366;51.980;5.856;2023-08-08T15:00:10;1.30;;;0.30;;
67528;SDS011;54366;51.980;5.856;2023-08-08T15:05:10;1.05;;;0.38;;
67528;SDS011;54366;51.980;5.856;2023-08-08T15:07:43;1.20;;;0.30;;
67528;SDS011;54366;51.980;5.856;2023-08-08T15:10:16;1.38;;;0.30;;
67528;SDS011;54366;51.980;5.856;2023-08-08T15:12:49;1.83;;;0.52;;
67528;SDS011;54366;51.980;5.856;2023-08-08T15:15:22;1.60;;;0.77;;
67528;SDS011;54366;51.980;5.856;2023-08-08T15:17:50;0.68;;;0.30;;
67528;SDS011;54366;51.980;5.856;2023-08-08T15:20:23;0.90;;;0.40;;
67528;SDS011;54366;51.980;5.856;2023-08-08T15:22:50;0.70;;;0.40;;
67528;SDS011;54366;51.980;5.856;2023-08-08T15:25:22;1.30;;;0.63;;
67528;SDS011;54366;51.980;5.856;2023-08-08T15:27:55;0.77;;;0.50;;
67528;SDS011;54366;51.980;5.856;2023-08-08T15:30:21;1.15;;;0.40;;
67528;SDS011;54366;51.980;5.856;2023-08-08T15:32:54;1.15;;;0.60;;
67528;SDS011;54366;51.980;5.856;2023-08-08T15:35:20;1.05;;;0.45;;
67528;SDS011;54366;51.980;5.856;2023-08-08T15:37:53;1.00;;;0.60;;
67528;SDS011;54366;51.980;5.856;2023-08-08T15:40:26;0.70;;;0.40;;
67528;SDS011;54366;51.980;5.856;2023-08-08T15:43:05;0.77;;;0.43;;
67528;SDS011;54366;51.980;5.856;2023-08-08T15:45:39;0.68;;;0.40;;
67528;SDS011;54366;51.980;5.856;2023-08-08T15:48:12;3.42;;;0.47;;
67528;SDS011;54366;51.980;5.856;2023-08-08T15:50:39;2.35;;;0.60;;
67528;SDS011;54366;51.980;5.856;2023-08-08T15:53:12;1.08;;;0.50;;